AUA15G LSGG-LOWW
Flight info
| Callsign | AUA15G |
|---|---|
| Flight time | 1h 14m |
| Altitude | 34000 |
| Route | SOSAL1N/04 SOSAL N871 KORED DCT BERSU DCT DITON N871 DEGES DCT GAMSA/N0439F350 DCT TULSI DCT INPUL DCT NEMAL NEMAL2W |
| Aircraft | A320/M-SDE3FGHIRWY/LB1 |
Departure
| Time | 2026-04-25 19:36 |
|---|---|
| Airport | Geneva International Airport (LSGG) |
Arrival
| Time | 2026-04-25 20:50 |
|---|---|
| Airport | Vienna International Airport (LOWW) |
| Time | Latitude | Longitude | Altitude | Speed | Heading |
|---|---|---|---|---|---|
| 2026-04-25 19:05 | 46.23006 | 6.10532 | 1400 ft | 0 kts | 135° |
| 2026-04-25 19:25 | 46.23019 | 6.10514 | 1403 ft | 4 kts | 144° |
| 2026-04-25 19:25 | 46.23042 | 6.10497 | 1403 ft | 4 kts | 178° |
| 2026-04-25 19:25 | 46.23061 | 6.10504 | 1401 ft | 1 kts | 225° |
| 2026-04-25 19:26 | 46.23061 | 6.10505 | 1401 ft | 1 kts | 225° |
| 2026-04-25 19:27 | 46.23058 | 6.10500 | 1400 ft | 3 kts | 225° |
| 2026-04-25 19:28 | 46.23029 | 6.10459 | 1407 ft | 9 kts | 225° |
| 2026-04-25 19:28 | 46.22978 | 6.10384 | 1393 ft | 12 kts | 227° |
| 2026-04-25 19:28 | 46.22976 | 6.10273 | 1404 ft | 14 kts | 315° |
| 2026-04-25 19:28 | 46.23053 | 6.10162 | 1394 ft | 15 kts | 309° |
| 2026-04-25 19:29 | 46.23040 | 6.10101 | 1398 ft | 7 kts | 223° |
| 2026-04-25 19:29 | 46.22999 | 6.10042 | 1395 ft | 10 kts | 225° |
| 2026-04-25 19:29 | 46.22940 | 6.09956 | 1402 ft | 14 kts | 225° |
| 2026-04-25 19:29 | 46.22863 | 6.09843 | 1398 ft | 16 kts | 225° |
| 2026-04-25 19:30 | 46.22776 | 6.09715 | 1395 ft | 20 kts | 225° |
| 2026-04-25 19:30 | 46.22681 | 6.09575 | 1399 ft | 19 kts | 225° |
| 2026-04-25 19:30 | 46.22590 | 6.09441 | 1396 ft | 16 kts | 230° |
| 2026-04-25 19:30 | 46.22558 | 6.09353 | 1406 ft | 5 kts | 254° |
| 2026-04-25 19:31 | 46.22556 | 6.09342 | 1404 ft | 0 kts | 257° |
| 2026-04-25 19:32 | 46.22555 | 6.09334 | 1404 ft | 3 kts | 257° |
| 2026-04-25 19:32 | 46.22552 | 6.09295 | 1412 ft | 0 kts | 265° |
| 2026-04-25 19:32 | 46.22551 | 6.09261 | 1408 ft | 6 kts | 270° |
| 2026-04-25 19:32 | 46.22551 | 6.09236 | 1411 ft | 3 kts | 273° |
| 2026-04-25 19:33 | 46.22552 | 6.09232 | 1412 ft | 0 kts | 275° |
| 2026-04-25 19:33 | 46.22564 | 6.09188 | 1416 ft | 7 kts | 306° |
| 2026-04-25 19:33 | 46.22614 | 6.09163 | 1416 ft | 10 kts | 11° |
| 2026-04-25 19:33 | 46.22655 | 6.09206 | 1417 ft | 0 kts | 45° |
| 2026-04-25 19:35 | 46.22701 | 6.09273 | 1417 ft | 37 kts | 44° |
| 2026-04-25 19:35 | 46.23053 | 6.09790 | 1417 ft | 104 kts | 46° |
| 2026-04-25 19:36 | 46.23684 | 6.10723 | 1384 ft | 157 kts | 45° |
| 2026-04-25 19:36 | 46.24523 | 6.11956 | 1683 ft | 174 kts | 44° |
| 2026-04-25 19:36 | 46.25358 | 6.13208 | 2371 ft | 175 kts | 45° |
| 2026-04-25 19:36 | 46.26233 | 6.14506 | 2996 ft | 179 kts | 43° |
| 2026-04-25 19:37 | 46.27121 | 6.15793 | 3479 ft | 189 kts | 44° |
| 2026-04-25 19:37 | 46.28081 | 6.17173 | 3943 ft | 199 kts | 43° |
| 2026-04-25 19:37 | 46.29111 | 6.18638 | 4308 ft | 218 kts | 45° |
| 2026-04-25 19:37 | 46.30230 | 6.20269 | 4717 ft | 239 kts | 45° |
| 2026-04-25 19:38 | 46.31441 | 6.22041 | 5217 ft | 256 kts | 45° |
| 2026-04-25 19:38 | 46.32725 | 6.23934 | 5819 ft | 270 kts | 46° |
| 2026-04-25 19:38 | 46.34056 | 6.25909 | 6527 ft | 278 kts | 46° |
| 2026-04-25 19:38 | 46.35422 | 6.27937 | 7288 ft | 283 kts | 46° |
| 2026-04-25 19:39 | 46.36663 | 6.30186 | 8028 ft | 288 kts | 60° |
| 2026-04-25 19:39 | 46.37420 | 6.32849 | 8970 ft | 286 kts | 74° |
| 2026-04-25 19:39 | 46.37949 | 6.35638 | 9785 ft | 290 kts | 73° |
| 2026-04-25 19:39 | 46.38505 | 6.38478 | 10449 ft | 297 kts | 73° |
| 2026-04-25 19:40 | 46.39095 | 6.41437 | 10838 ft | 314 kts | 73° |
| 2026-04-25 19:40 | 46.39725 | 6.44559 | 11201 ft | 331 kts | 72° |
| 2026-04-25 19:40 | 46.40385 | 6.47827 | 11622 ft | 344 kts | 72° |
| 2026-04-25 19:40 | 46.41060 | 6.51180 | 12278 ft | 349 kts | 72° |
| 2026-04-25 19:41 | 46.41739 | 6.54576 | 13009 ft | 352 kts | 72° |
| 2026-04-25 19:41 | 46.42420 | 6.58000 | 13736 ft | 355 kts | 72° |
| 2026-04-25 19:41 | 46.43104 | 6.61456 | 14362 ft | 358 kts | 72° |
| 2026-04-25 19:41 | 46.43303 | 6.62600 | 14556 ft | 360 kts | 77° |
| 2026-04-25 19:42 | 46.43761 | 6.68711 | 15558 ft | 368 kts | 83° |
| 2026-04-25 19:42 | 46.43960 | 6.72429 | 16140 ft | 372 kts | 83° |
| 2026-04-25 19:42 | 46.44149 | 6.76134 | 16710 ft | 376 kts | 83° |
| 2026-04-25 19:42 | 46.44355 | 6.79927 | 17288 ft | 378 kts | 79° |
| 2026-04-25 19:43 | 46.45077 | 6.83567 | 17879 ft | 375 kts | 61° |
| 2026-04-25 19:43 | 46.46518 | 6.86678 | 18439 ft | 372 kts | 45° |
| 2026-04-25 19:43 | 46.48276 | 6.89451 | 18908 ft | 376 kts | 44° |
| 2026-04-25 19:43 | 46.50059 | 6.92243 | 19431 ft | 379 kts | 44° |
| 2026-04-25 19:44 | 46.51860 | 6.95062 | 19944 ft | 382 kts | 44° |
| 2026-04-25 19:44 | 46.53669 | 6.97900 | 20464 ft | 385 kts | 44° |
| 2026-04-25 19:44 | 46.55499 | 7.00780 | 20977 ft | 388 kts | 44° |
| 2026-04-25 19:44 | 46.57333 | 7.03676 | 21501 ft | 391 kts | 44° |
| 2026-04-25 19:45 | 46.59169 | 7.06581 | 21993 ft | 394 kts | 44° |
| 2026-04-25 19:45 | 46.61046 | 7.09550 | 22482 ft | 397 kts | 44° |
| 2026-04-25 19:45 | 46.62923 | 7.12531 | 22967 ft | 400 kts | 44° |
| 2026-04-25 19:45 | 46.64809 | 7.15533 | 23442 ft | 403 kts | 44° |
| 2026-04-25 19:46 | 46.66696 | 7.18583 | 23839 ft | 408 kts | 47° |
| 2026-04-25 19:46 | 46.68188 | 7.22137 | 24210 ft | 416 kts | 62° |
| 2026-04-25 19:46 | 46.69399 | 7.25964 | 24558 ft | 420 kts | 62° |
| 2026-04-25 19:46 | 46.70619 | 7.29855 | 24917 ft | 423 kts | 62° |
| 2026-04-25 19:47 | 46.71831 | 7.33739 | 25266 ft | 425 kts | 62° |
| 2026-04-25 19:47 | 46.73069 | 7.37713 | 25627 ft | 427 kts | 62° |
| 2026-04-25 19:47 | 46.74302 | 7.41680 | 25957 ft | 430 kts | 62° |
| 2026-04-25 19:47 | 46.75520 | 7.45607 | 26291 ft | 432 kts | 62° |
| 2026-04-25 19:48 | 46.76761 | 7.49612 | 26637 ft | 435 kts | 63° |
| 2026-04-25 19:48 | 46.78008 | 7.53639 | 26971 ft | 437 kts | 62° |
| 2026-04-25 19:48 | 46.79285 | 7.57761 | 27301 ft | 439 kts | 62° |
| 2026-04-25 19:48 | 46.80546 | 7.61829 | 27626 ft | 442 kts | 62° |
| 2026-04-25 19:49 | 46.81810 | 7.65919 | 27936 ft | 444 kts | 62° |
| 2026-04-25 19:49 | 46.82220 | 7.67250 | 28027 ft | 444 kts | 63° |
| 2026-04-25 19:49 | 46.84354 | 7.74181 | 28509 ft | 448 kts | 63° |
| 2026-04-25 19:49 | 46.85628 | 7.78333 | 28802 ft | 450 kts | 63° |
| 2026-04-25 19:50 | 46.88191 | 7.86724 | 29401 ft | 454 kts | 63° |
| 2026-04-25 19:50 | 46.89480 | 7.90957 | 29645 ft | 456 kts | 63° |
| 2026-04-25 19:50 | 46.90776 | 7.95208 | 29931 ft | 458 kts | 63° |
| 2026-04-25 19:51 | 46.92059 | 7.99411 | 30207 ft | 460 kts | 63° |
| 2026-04-25 19:51 | 46.93365 | 8.03685 | 30422 ft | 461 kts | 63° |
| 2026-04-25 19:51 | 46.94675 | 8.07989 | 30638 ft | 462 kts | 63° |
| 2026-04-25 19:51 | 46.95983 | 8.12300 | 30853 ft | 464 kts | 63° |
| 2026-04-25 19:52 | 46.97289 | 8.16619 | 31050 ft | 465 kts | 63° |
| 2026-04-25 19:52 | 46.98597 | 8.20962 | 31271 ft | 466 kts | 63° |
| 2026-04-25 19:52 | 46.99903 | 8.25310 | 31546 ft | 465 kts | 63° |
| 2026-04-25 19:52 | 47.01201 | 8.29635 | 31834 ft | 463 kts | 63° |
| 2026-04-25 19:53 | 47.02498 | 8.33953 | 32107 ft | 463 kts | 63° |
| 2026-04-25 19:53 | 47.03794 | 8.38262 | 32375 ft | 462 kts | 63° |
| 2026-04-25 19:53 | 47.05085 | 8.42567 | 32632 ft | 461 kts | 63° |
| 2026-04-25 19:53 | 47.06370 | 8.46873 | 32902 ft | 461 kts | 63° |
| 2026-04-25 19:54 | 47.07654 | 8.51184 | 33173 ft | 460 kts | 63° |
| 2026-04-25 19:54 | 47.08934 | 8.55492 | 33436 ft | 460 kts | 63° |
| 2026-04-25 19:54 | 47.10215 | 8.59807 | 33690 ft | 460 kts | 63° |
| 2026-04-25 19:55 | 47.12766 | 8.68401 | 34189 ft | 459 kts | 63° |
| 2026-04-25 19:55 | 47.14035 | 8.72694 | 34405 ft | 459 kts | 63° |
| 2026-04-25 19:55 | 47.15287 | 8.76938 | 34618 ft | 458 kts | 63° |
| 2026-04-25 19:55 | 47.16553 | 8.81232 | 34826 ft | 458 kts | 63° |
| 2026-04-25 19:56 | 47.17822 | 8.85538 | 35024 ft | 458 kts | 63° |
| 2026-04-25 19:56 | 47.20332 | 8.94093 | 35119 ft | 454 kts | 63° |
| 2026-04-25 19:57 | 47.22830 | 9.02629 | 35129 ft | 454 kts | 63° |
| 2026-04-25 19:57 | 47.25314 | 9.11165 | 35129 ft | 457 kts | 64° |
| 2026-04-25 19:58 | 47.27840 | 9.19868 | 35123 ft | 466 kts | 64° |
| 2026-04-25 19:58 | 47.30401 | 9.28704 | 35119 ft | 472 kts | 64° |
| 2026-04-25 19:59 | 47.32975 | 9.37638 | 35130 ft | 475 kts | 64° |
| 2026-04-25 19:59 | 47.35553 | 9.46622 | 35137 ft | 475 kts | 64° |
| 2026-04-25 20:00 | 47.38119 | 9.55597 | 35135 ft | 475 kts | 64° |
| 2026-04-25 20:00 | 47.40242 | 9.63073 | 35145 ft | 476 kts | 65° |
| 2026-04-25 20:01 | 47.42867 | 9.78954 | 35148 ft | 480 kts | 75° |
| 2026-04-25 20:01 | 47.44269 | 9.88586 | 35150 ft | 480 kts | 75° |
| 2026-04-25 20:02 | 47.45442 | 9.96667 | 35149 ft | 480 kts | 75° |
| 2026-04-25 20:02 | 47.46822 | 10.06253 | 35159 ft | 480 kts | 75° |
| 2026-04-25 20:03 | 47.48202 | 10.15913 | 35154 ft | 480 kts | 75° |
| 2026-04-25 20:03 | 47.49495 | 10.24992 | 35155 ft | 480 kts | 75° |
| 2026-04-25 20:04 | 47.50800 | 10.34668 | 35160 ft | 481 kts | 81° |
| 2026-04-25 20:04 | 47.51280 | 10.44563 | 35172 ft | 483 kts | 84° |
| 2026-04-25 20:05 | 47.51676 | 10.54482 | 35168 ft | 483 kts | 84° |
| 2026-04-25 20:05 | 47.52063 | 10.64382 | 35165 ft | 482 kts | 84° |
| 2026-04-25 20:06 | 47.52448 | 10.74297 | 35163 ft | 483 kts | 84° |
| 2026-04-25 20:06 | 47.52826 | 10.84206 | 35157 ft | 482 kts | 84° |
| 2026-04-25 20:07 | 47.53856 | 10.93936 | 35141 ft | 478 kts | 72° |
| 2026-04-25 20:07 | 47.55513 | 11.03378 | 35132 ft | 477 kts | 72° |
| 2026-04-25 20:08 | 47.57180 | 11.12899 | 35132 ft | 477 kts | 72° |
| 2026-04-25 20:08 | 47.58841 | 11.22414 | 35123 ft | 477 kts | 72° |
| 2026-04-25 20:09 | 47.60492 | 11.31953 | 35119 ft | 478 kts | 73° |
| 2026-04-25 20:09 | 47.62128 | 11.41492 | 35115 ft | 477 kts | 73° |
| 2026-04-25 20:10 | 47.63763 | 11.51040 | 35111 ft | 477 kts | 72° |
| 2026-04-25 20:10 | 47.65389 | 11.60568 | 35112 ft | 477 kts | 73° |
| 2026-04-25 20:11 | 47.67001 | 11.70113 | 35114 ft | 477 kts | 73° |
| 2026-04-25 20:11 | 47.68605 | 11.79666 | 35109 ft | 477 kts | 73° |
| 2026-04-25 20:12 | 47.70194 | 11.89154 | 35110 ft | 477 kts | 73° |
| 2026-04-25 20:12 | 47.71529 | 11.97146 | 35116 ft | 476 kts | 73° |
| 2026-04-25 20:13 | 47.73370 | 12.08251 | 35119 ft | 476 kts | 73° |
| 2026-04-25 20:13 | 47.74944 | 12.17817 | 35118 ft | 476 kts | 73° |
| 2026-04-25 20:14 | 47.76513 | 12.27398 | 35117 ft | 476 kts | 73° |
| 2026-04-25 20:14 | 47.78073 | 12.36967 | 35105 ft | 476 kts | 73° |
| 2026-04-25 20:15 | 47.79600 | 12.46556 | 35112 ft | 477 kts | 77° |
| 2026-04-25 20:15 | 47.80165 | 12.56434 | 35110 ft | 480 kts | 83° |
| 2026-04-25 20:16 | 47.80609 | 12.66271 | 35116 ft | 480 kts | 83° |
| 2026-04-25 20:16 | 47.81046 | 12.76190 | 35120 ft | 480 kts | 83° |
| 2026-04-25 20:17 | 47.81483 | 12.86093 | 35119 ft | 480 kts | 83° |
| 2026-04-25 20:17 | 47.81923 | 12.95999 | 35120 ft | 480 kts | 83° |
| 2026-04-25 20:18 | 47.82342 | 13.05901 | 35120 ft | 480 kts | 84° |
| 2026-04-25 20:18 | 47.82748 | 13.15809 | 35117 ft | 480 kts | 84° |
| 2026-04-25 20:19 | 47.83155 | 13.25723 | 35032 ft | 476 kts | 84° |
| 2026-04-25 20:19 | 47.83352 | 13.30606 | 34626 ft | 470 kts | 84° |
| 2026-04-25 20:19 | 47.83546 | 13.35445 | 33895 ft | 468 kts | 84° |
| 2026-04-25 20:20 | 47.83734 | 13.40262 | 33201 ft | 463 kts | 84° |
| 2026-04-25 20:20 | 47.83917 | 13.45023 | 32618 ft | 457 kts | 84° |
| 2026-04-25 20:20 | 47.84058 | 13.49722 | 32036 ft | 453 kts | 86° |
| 2026-04-25 20:20 | 47.84072 | 13.54392 | 31458 ft | 449 kts | 88° |
| 2026-04-25 20:21 | 47.83988 | 13.59014 | 30890 ft | 445 kts | 89° |
| 2026-04-25 20:21 | 47.83853 | 13.63602 | 30357 ft | 441 kts | 90° |
| 2026-04-25 20:21 | 47.83712 | 13.68154 | 29724 ft | 437 kts | 90° |
| 2026-04-25 20:21 | 47.83591 | 13.72622 | 28895 ft | 438 kts | 89° |
| 2026-04-25 20:22 | 47.83492 | 13.77147 | 28182 ft | 436 kts | 89° |
| 2026-04-25 20:22 | 47.83464 | 13.78664 | 27954 ft | 435 kts | 89° |
| 2026-04-25 20:22 | 47.83343 | 13.86114 | 26937 ft | 431 kts | 89° |
| 2026-04-25 20:22 | 47.83274 | 13.90551 | 26340 ft | 428 kts | 89° |
| 2026-04-25 20:23 | 47.83201 | 13.94963 | 25730 ft | 425 kts | 90° |
| 2026-04-25 20:23 | 47.83122 | 13.99355 | 25166 ft | 423 kts | 90° |
| 2026-04-25 20:23 | 47.83041 | 14.03724 | 24616 ft | 421 kts | 90° |
| 2026-04-25 20:23 | 47.82958 | 14.08076 | 24078 ft | 419 kts | 90° |
| 2026-04-25 20:24 | 47.82873 | 14.12392 | 23547 ft | 417 kts | 91° |
| 2026-04-25 20:24 | 47.82784 | 14.16696 | 22909 ft | 415 kts | 91° |
| 2026-04-25 20:24 | 47.82691 | 14.20984 | 22388 ft | 412 kts | 91° |
| 2026-04-25 20:24 | 47.82598 | 14.25234 | 21885 ft | 409 kts | 91° |
| 2026-04-25 20:25 | 47.82508 | 14.29459 | 21374 ft | 406 kts | 91° |
| 2026-04-25 20:25 | 47.82420 | 14.33645 | 20877 ft | 403 kts | 91° |
| 2026-04-25 20:25 | 47.82330 | 14.37795 | 20394 ft | 401 kts | 91° |
| 2026-04-25 20:25 | 47.82237 | 14.41922 | 19940 ft | 397 kts | 91° |
| 2026-04-25 20:26 | 47.82143 | 14.46030 | 19478 ft | 395 kts | 90° |
| 2026-04-25 20:26 | 47.82049 | 14.50110 | 19013 ft | 393 kts | 91° |
| 2026-04-25 20:26 | 47.81952 | 14.54161 | 18566 ft | 390 kts | 91° |
| 2026-04-25 20:26 | 47.81855 | 14.58169 | 18108 ft | 387 kts | 91° |
| 2026-04-25 20:27 | 47.81755 | 14.62176 | 17604 ft | 385 kts | 91° |
| 2026-04-25 20:27 | 47.81656 | 14.66094 | 17162 ft | 382 kts | 91° |
| 2026-04-25 20:27 | 47.81555 | 14.70045 | 17029 ft | 381 kts | 91° |
| 2026-04-25 20:27 | 47.81455 | 14.73998 | 17066 ft | 383 kts | 91° |
| 2026-04-25 20:28 | 47.81355 | 14.77960 | 17063 ft | 384 kts | 91° |
| 2026-04-25 20:28 | 47.81253 | 14.81922 | 17057 ft | 382 kts | 91° |
| 2026-04-25 20:28 | 47.81149 | 14.85886 | 17056 ft | 383 kts | 91° |
| 2026-04-25 20:28 | 47.81044 | 14.89858 | 17056 ft | 384 kts | 91° |
| 2026-04-25 20:29 | 47.80937 | 14.93821 | 17058 ft | 384 kts | 91° |
| 2026-04-25 20:29 | 47.80829 | 14.97797 | 17056 ft | 384 kts | 91° |
| 2026-04-25 20:29 | 47.80718 | 15.01759 | 17056 ft | 384 kts | 91° |
| 2026-04-25 20:29 | 47.80606 | 15.05727 | 17052 ft | 384 kts | 91° |
| 2026-04-25 20:30 | 47.80493 | 15.09691 | 17058 ft | 384 kts | 91° |
| 2026-04-25 20:30 | 47.80378 | 15.13660 | 17055 ft | 384 kts | 91° |
| 2026-04-25 20:30 | 47.80261 | 15.17630 | 17054 ft | 384 kts | 91° |
| 2026-04-25 20:30 | 47.80143 | 15.21605 | 17055 ft | 384 kts | 91° |
| 2026-04-25 20:31 | 47.80025 | 15.25571 | 17053 ft | 384 kts | 91° |
| 2026-04-25 20:31 | 47.79905 | 15.29546 | 17053 ft | 385 kts | 91° |
| 2026-04-25 20:31 | 47.79786 | 15.33517 | 17051 ft | 385 kts | 91° |
| 2026-04-25 20:31 | 47.79667 | 15.37487 | 16832 ft | 382 kts | 91° |
| 2026-04-25 20:32 | 47.79549 | 15.41378 | 16637 ft | 372 kts | 91° |
| 2026-04-25 20:32 | 47.79430 | 15.45197 | 16256 ft | 368 kts | 91° |
| 2026-04-25 20:32 | 47.79306 | 15.48987 | 15852 ft | 366 kts | 91° |
| 2026-04-25 20:32 | 47.79194 | 15.52750 | 15480 ft | 362 kts | 88° |
| 2026-04-25 20:33 | 47.79458 | 15.56412 | 15331 ft | 350 kts | 79° |
| 2026-04-25 20:33 | 47.79797 | 15.59950 | 15192 ft | 341 kts | 79° |
| 2026-04-25 20:33 | 47.80121 | 15.63422 | 14963 ft | 337 kts | 79° |
| 2026-04-25 20:33 | 47.80225 | 15.64533 | 14795 ft | 338 kts | 79° |
| 2026-04-25 20:34 | 47.80769 | 15.70368 | 13989 ft | 343 kts | 80° |
| 2026-04-25 20:34 | 47.81096 | 15.73868 | 13638 ft | 340 kts | 80° |
| 2026-04-25 20:34 | 47.81420 | 15.77330 | 13250 ft | 337 kts | 80° |
| 2026-04-25 20:34 | 47.81740 | 15.80769 | 12788 ft | 333 kts | 79° |
| 2026-04-25 20:35 | 47.82056 | 15.84187 | 12338 ft | 333 kts | 80° |
| 2026-04-25 20:35 | 47.82369 | 15.87599 | 11991 ft | 330 kts | 80° |
| 2026-04-25 20:35 | 47.82679 | 15.90970 | 11620 ft | 328 kts | 80° |
| 2026-04-25 20:35 | 47.82986 | 15.94327 | 11178 ft | 327 kts | 79° |
| 2026-04-25 20:36 | 47.83290 | 15.97665 | 10793 ft | 323 kts | 80° |
| 2026-04-25 20:36 | 47.83592 | 16.00980 | 10430 ft | 321 kts | 80° |
| 2026-04-25 20:36 | 47.83891 | 16.04257 | 10100 ft | 318 kts | 80° |
| 2026-04-25 20:36 | 47.84187 | 16.07507 | 9697 ft | 315 kts | 80° |
| 2026-04-25 20:37 | 47.84477 | 16.10734 | 9254 ft | 313 kts | 80° |
| 2026-04-25 20:37 | 47.84762 | 16.13922 | 9024 ft | 310 kts | 80° |
| 2026-04-25 20:37 | 47.85047 | 16.17116 | 9030 ft | 311 kts | 80° |
| 2026-04-25 20:37 | 47.85333 | 16.20317 | 9036 ft | 311 kts | 80° |
| 2026-04-25 20:38 | 47.85620 | 16.23521 | 9034 ft | 312 kts | 80° |
| 2026-04-25 20:38 | 47.85907 | 16.26721 | 9030 ft | 312 kts | 80° |
| 2026-04-25 20:38 | 47.86194 | 16.29916 | 9034 ft | 311 kts | 80° |
| 2026-04-25 20:38 | 47.86480 | 16.33122 | 9031 ft | 312 kts | 80° |
| 2026-04-25 20:39 | 47.86760 | 16.36280 | 9031 ft | 311 kts | 80° |
| 2026-04-25 20:39 | 47.87040 | 16.39470 | 9033 ft | 306 kts | 80° |
| 2026-04-25 20:39 | 47.87308 | 16.42562 | 9025 ft | 300 kts | 81° |
| 2026-04-25 20:39 | 47.87399 | 16.43603 | 9009 ft | 301 kts | 81° |
| 2026-04-25 20:40 | 47.87843 | 16.48717 | 8482 ft | 298 kts | 81° |
| 2026-04-25 20:40 | 47.88106 | 16.51764 | 8101 ft | 295 kts | 81° |
| 2026-04-25 20:40 | 47.88364 | 16.54784 | 7717 ft | 293 kts | 81° |
| 2026-04-25 20:40 | 47.88618 | 16.57779 | 7333 ft | 290 kts | 81° |
| 2026-04-25 20:41 | 47.88869 | 16.60750 | 6945 ft | 287 kts | 81° |
| 2026-04-25 20:41 | 47.89120 | 16.63680 | 6543 ft | 284 kts | 80° |
| 2026-04-25 20:41 | 47.89371 | 16.66595 | 6137 ft | 282 kts | 80° |
| 2026-04-25 20:41 | 47.89617 | 16.69485 | 5731 ft | 280 kts | 80° |
| 2026-04-25 20:42 | 47.89856 | 16.72314 | 5475 ft | 271 kts | 80° |
| 2026-04-25 20:42 | 47.90091 | 16.75084 | 5101 ft | 268 kts | 79° |
| 2026-04-25 20:42 | 47.90518 | 16.77732 | 4834 ft | 254 kts | 58° |
| 2026-04-25 20:42 | 47.91605 | 16.79610 | 4703 ft | 228 kts | 31° |
| 2026-04-25 20:43 | 47.92879 | 16.80846 | 4505 ft | 212 kts | 26° |
| 2026-04-25 20:43 | 47.94128 | 16.81961 | 4098 ft | 207 kts | 25° |
| 2026-04-25 20:43 | 47.95362 | 16.83064 | 3636 ft | 206 kts | 25° |
| 2026-04-25 20:43 | 47.96578 | 16.84164 | 3263 ft | 208 kts | 25° |
| 2026-04-25 20:44 | 47.97807 | 16.85290 | 3041 ft | 206 kts | 25° |
| 2026-04-25 20:44 | 47.99051 | 16.86347 | 2990 ft | 202 kts | 13° |
| 2026-04-25 20:44 | 48.00402 | 16.86498 | 2993 ft | 193 kts | 342° |
| 2026-04-25 20:44 | 48.01213 | 16.85997 | 2993 ft | 190 kts | 323° |
| 2026-04-25 20:45 | 48.02262 | 16.83930 | 2991 ft | 190 kts | 297° |
| 2026-04-25 20:45 | 48.02646 | 16.82749 | 2995 ft | 190 kts | 297° |
| 2026-04-25 20:45 | 48.03230 | 16.80967 | 2994 ft | 190 kts | 297° |
| 2026-04-25 20:45 | 48.03812 | 16.79195 | 2998 ft | 190 kts | 297° |
| 2026-04-25 20:46 | 48.04395 | 16.77424 | 3002 ft | 189 kts | 297° |
| 2026-04-25 20:46 | 48.04953 | 16.75729 | 3010 ft | 178 kts | 298° |
| 2026-04-25 20:46 | 48.05499 | 16.74066 | 2954 ft | 177 kts | 297° |
| 2026-04-25 20:46 | 48.06029 | 16.72454 | 2775 ft | 169 kts | 297° |
| 2026-04-25 20:47 | 48.06540 | 16.70897 | 2566 ft | 168 kts | 298° |
| 2026-04-25 20:47 | 48.07053 | 16.69334 | 2353 ft | 164 kts | 297° |
| 2026-04-25 20:47 | 48.07538 | 16.67856 | 2147 ft | 156 kts | 297° |
| 2026-04-25 20:47 | 48.07994 | 16.66462 | 1954 ft | 144 kts | 297° |
| 2026-04-25 20:48 | 48.08422 | 16.65156 | 1765 ft | 130 kts | 297° |
| 2026-04-25 20:48 | 48.08796 | 16.64011 | 1598 ft | 121 kts | 297° |
| 2026-04-25 20:48 | 48.09164 | 16.62886 | 1442 ft | 121 kts | 296° |
| 2026-04-25 20:48 | 48.09539 | 16.61737 | 1283 ft | 124 kts | 296° |
| 2026-04-25 20:49 | 48.09923 | 16.60573 | 1158 ft | 125 kts | 294° |
| 2026-04-25 20:49 | 48.10306 | 16.59393 | 932 ft | 127 kts | 294° |
| 2026-04-25 20:49 | 48.10693 | 16.58208 | 742 ft | 127 kts | 295° |
| 2026-04-25 20:49 | 48.11079 | 16.57033 | 624 ft | 122 kts | 295° |
| 2026-04-25 20:50 | 48.11338 | 16.56231 | 616 ft | 51 kts | 295° |
| 2026-04-25 20:50 | 48.11522 | 16.55667 | 617 ft | 58 kts | 295° |
| 2026-04-25 20:50 | 48.11670 | 16.55333 | 611 ft | 32 kts | 315° |
| 2026-04-25 20:50 | 48.11793 | 16.55160 | 616 ft | 18 kts | 333° |
| 2026-04-25 20:51 | 48.11877 | 16.55151 | 611 ft | 4 kts | 26° |
| 2026-04-25 20:51 | 48.11899 | 16.55186 | 613 ft | 3 kts | 92° |
| 2026-04-25 20:51 | 48.11859 | 16.55274 | 617 ft | 20 kts | 107° |
| 2026-04-25 20:51 | 48.11806 | 16.55440 | 611 ft | 18 kts | 116° |
| 2026-04-25 20:52 | 48.11748 | 16.55619 | 618 ft | 16 kts | 116° |
| 2026-04-25 20:52 | 48.11712 | 16.55733 | 621 ft | 21 kts | 114° |
| 2026-04-25 20:52 | 48.11619 | 16.56012 | 619 ft | 23 kts | 115° |
| 2026-04-25 20:52 | 48.11602 | 16.56182 | 623 ft | 17 kts | 36° |
| 2026-04-25 20:53 | 48.11703 | 16.56279 | 611 ft | 20 kts | 24° |
| 2026-04-25 20:53 | 48.11747 | 16.56399 | 611 ft | 14 kts | 114° |
| 2026-04-25 20:53 | 48.11696 | 16.56560 | 613 ft | 19 kts | 115° |
| 2026-04-25 20:53 | 48.11646 | 16.56710 | 619 ft | 14 kts | 114° |
| 2026-04-25 20:54 | 48.11668 | 16.56766 | 613 ft | 2 kts | 47° |
| 2026-04-25 20:54 | 48.11696 | 16.56782 | 619 ft | 5 kts | 24° |
| 2026-04-25 20:54 | 48.11708 | 16.56789 | 616 ft | 0 kts | 23° |